sensor_id;sensor_type;location;lat;lon;timestamp;P1;durP1;ratioP1;P2;durP2;ratioP2
3841;SDS011;1936;47.074;15.336;2023-07-09T00:01:36;9.60;;;8.70;;
3841;SDS011;1936;47.074;15.336;2023-07-09T00:03:40;10.23;;;8.37;;
3841;SDS011;1936;47.074;15.336;2023-07-09T00:05:44;10.23;;;7.70;;
3841;SDS011;1936;47.074;15.336;2023-07-09T00:07:51;12.20;;;7.57;;
3841;SDS011;1936;47.074;15.336;2023-07-09T00:09:54;14.40;;;8.10;;
3841;SDS011;1936;47.074;15.336;2023-07-09T00:11:59;10.27;;;8.10;;
3841;SDS011;1936;47.074;15.336;2023-07-09T00:14:04;14.10;;;8.67;;
3841;SDS011;1936;47.074;15.336;2023-07-09T00:16:12;10.40;;;8.83;;
3841;SDS011;1936;47.074;15.336;2023-07-09T00:18:18;11.33;;;7.60;;
3841;SDS011;1936;47.074;15.336;2023-07-09T00:20:22;9.20;;;6.30;;
3841;SDS011;1936;47.074;15.336;2023-07-09T00:22:25;15.00;;;7.10;;
3841;SDS011;1936;47.074;15.336;2023-07-09T00:24:28;12.80;;;8.67;;
3841;SDS011;1936;47.074;15.336;2023-07-09T00:26:32;12.17;;;9.00;;
3841;SDS011;1936;47.074;15.336;2023-07-09T00:28:38;8.43;;;7.23;;
3841;SDS011;1936;47.074;15.336;2023-07-09T00:30:43;12.47;;;7.87;;
3841;SDS011;1936;47.074;15.336;2023-07-09T00:32:48;12.63;;;7.73;;
3841;SDS011;1936;47.074;15.336;2023-07-09T00:34:53;12.90;;;9.20;;
3841;SDS011;1936;47.074;15.336;2023-07-09T00:36:57;11.97;;;9.13;;
3841;SDS011;1936;47.074;15.336;2023-07-09T00:39:01;8.80;;;7.37;;
3841;SDS011;1936;47.074;15.336;2023-07-09T00:41:11;9.53;;;8.17;;
3841;SDS011;1936;47.074;15.336;2023-07-09T00:43:19;11.07;;;8.13;;
3841;SDS011;1936;47.074;15.336;2023-07-09T00:45:23;9.70;;;7.90;;
3841;SDS011;1936;47.074;15.336;2023-07-09T00:47:30;8.57;;;7.67;;
3841;SDS011;1936;47.074;15.336;2023-07-09T00:49:45;11.60;;;9.80;;
3841;SDS011;1936;47.074;15.336;2023-07-09T00:51:49;9.80;;;8.80;;
3841;SDS011;1936;47.074;15.336;2023-07-09T00:53:55;9.00;;;8.10;;
3841;SDS011;1936;47.074;15.336;2023-07-09T00:56:04;10.33;;;8.43;;
3841;SDS011;1936;47.074;15.336;2023-07-09T00:58:12;10.37;;;7.60;;
3841;SDS011;1936;47.074;15.336;2023-07-09T01:00:17;10.53;;;7.63;;
3841;SDS011;1936;47.074;15.336;2023-07-09T01:02:21;9.17;;;8.10;;
3841;SDS011;1936;47.074;15.336;2023-07-09T01:04:26;12.30;;;8.50;;
3841;SDS011;1936;47.074;15.336;2023-07-09T01:06:33;9.90;;;8.17;;
3841;SDS011;1936;47.074;15.336;2023-07-09T01:08:40;10.00;;;8.70;;
3841;SDS011;1936;47.074;15.336;2023-07-09T01:10:44;8.70;;;7.20;;
3841;SDS011;1936;47.074;15.336;2023-07-09T01:12:46;11.40;;;9.07;;
3841;SDS011;1936;47.074;15.336;2023-07-09T01:14:52;8.10;;;7.30;;
3841;SDS011;1936;47.074;15.336;2023-07-09T01:17:02;8.87;;;7.73;;
3841;SDS011;1936;47.074;15.336;2023-07-09T01:19:09;9.40;;;8.40;;
3841;SDS011;1936;47.074;15.336;2023-07-09T01:21:18;8.00;;;7.20;;
3841;SDS011;1936;47.074;15.336;2023-07-09T01:23:22;9.90;;;7.97;;
3841;SDS011;1936;47.074;15.336;2023-07-09T01:25:26;12.30;;;7.50;;
3841;SDS011;1936;47.074;15.336;2023-07-09T01:27:32;8.03;;;7.23;;
3841;SDS011;1936;47.074;15.336;2023-07-09T01:29:38;11.97;;;8.50;;
3841;SDS011;1936;47.074;15.336;2023-07-09T01:31:46;9.10;;;7.80;;
3841;SDS011;1936;47.074;15.336;2023-07-09T01:33:53;9.30;;;7.77;;
3841;SDS011;1936;47.074;15.336;2023-07-09T01:35:57;12.20;;;6.97;;
3841;SDS011;1936;47.074;15.336;2023-07-09T01:38:04;13.60;;;7.00;;
3841;SDS011;1936;47.074;15.336;2023-07-09T01:40:09;8.33;;;7.50;;
3841;SDS011;1936;47.074;15.336;2023-07-09T01:42:31;11.57;;;8.73;;
3841;SDS011;1936;47.074;15.336;2023-07-09T01:44:35;9.27;;;7.63;;
3841;SDS011;1936;47.074;15.336;2023-07-09T01:46:39;10.87;;;8.10;;
3841;SDS011;1936;47.074;15.336;2023-07-09T01:48:49;8.87;;;7.97;;
3841;SDS011;1936;47.074;15.336;2023-07-09T01:50:54;7.70;;;6.90;;
3841;SDS011;1936;47.074;15.336;2023-07-09T01:52:59;7.87;;;7.07;;
3841;SDS011;1936;47.074;15.336;2023-07-09T01:55:05;13.03;;;9.07;;
3841;SDS011;1936;47.074;15.336;2023-07-09T01:57:13;9.10;;;7.67;;
3841;SDS011;1936;47.074;15.336;2023-07-09T01:59:21;9.03;;;7.80;;
3841;SDS011;1936;47.074;15.336;2023-07-09T02:01:24;10.50;;;7.83;;
3841;SDS011;1936;47.074;15.336;2023-07-09T02:03:29;8.73;;;7.83;;
3841;SDS011;1936;47.074;15.336;2023-07-09T02:05:33;9.40;;;6.97;;
3841;SDS011;1936;47.074;15.336;2023-07-09T02:07:38;11.40;;;8.90;;
3841;SDS011;1936;47.074;15.336;2023-07-09T02:09:42;7.63;;;6.83;;
3841;SDS011;1936;47.074;15.336;2023-07-09T02:11:47;9.07;;;8.17;;
3841;SDS011;1936;47.074;15.336;2023-07-09T02:13:50;12.03;;;8.67;;
3841;SDS011;1936;47.074;15.336;2023-07-09T02:15:54;8.27;;;7.40;;
3841;SDS011;1936;47.074;15.336;2023-07-09T02:17:57;10.17;;;8.00;;
3841;SDS011;1936;47.074;15.336;2023-07-09T02:20:04;13.27;;;8.30;;
3841;SDS011;1936;47.074;15.336;2023-07-09T02:22:08;8.13;;;7.30;;
3841;SDS011;1936;47.074;15.336;2023-07-09T02:24:12;8.27;;;7.47;;
3841;SDS011;1936;47.074;15.336;2023-07-09T02:26:15;12.73;;;8.60;;
3841;SDS011;1936;47.074;15.336;2023-07-09T02:28:20;11.07;;;8.27;;
3841;SDS011;1936;47.074;15.336;2023-07-09T02:30:24;8.23;;;6.80;;
3841;SDS011;1936;47.074;15.336;2023-07-09T02:32:27;12.23;;;8.60;;
3841;SDS011;1936;47.074;15.336;2023-07-09T02:34:31;9.13;;;7.97;;
3841;SDS011;1936;47.074;15.336;2023-07-09T02:36:36;9.40;;;8.13;;
3841;SDS011;1936;47.074;15.336;2023-07-09T02:38:44;9.53;;;8.13;;
3841;SDS011;1936;47.074;15.336;2023-07-09T02:40:48;9.13;;;8.23;;
3841;SDS011;1936;47.074;15.336;2023-07-09T02:42:51;8.33;;;7.33;;
3841;SDS011;1936;47.074;15.336;2023-07-09T02:44:56;9.20;;;8.07;;
3841;SDS011;1936;47.074;15.336;2023-07-09T02:47:00;9.13;;;7.93;;
3841;SDS011;1936;47.074;15.336;2023-07-09T02:49:04;8.97;;;7.80;;
3841;SDS011;1936;47.074;15.336;2023-07-09T02:51:08;11.10;;;9.10;;
3841;SDS011;1936;47.074;15.336;2023-07-09T02:53:12;9.43;;;7.83;;
3841;SDS011;1936;47.074;15.336;2023-07-09T02:55:15;10.80;;;7.80;;
3841;SDS011;1936;47.074;15.336;2023-07-09T02:57:19;11.23;;;8.90;;
3841;SDS011;1936;47.074;15.336;2023-07-09T02:59:23;11.80;;;8.60;;
3841;SDS011;1936;47.074;15.336;2023-07-09T03:01:29;10.40;;;7.43;;
3841;SDS011;1936;47.074;15.336;2023-07-09T03:03:36;14.20;;;8.60;;
3841;SDS011;1936;47.074;15.336;2023-07-09T03:05:39;9.80;;;8.50;;
3841;SDS011;1936;47.074;15.336;2023-07-09T03:07:43;9.63;;;8.63;;
3841;SDS011;1936;47.074;15.336;2023-07-09T03:09:47;8.70;;;7.77;;
3841;SDS011;1936;47.074;15.336;2023-07-09T03:11:51;10.87;;;8.57;;
3841;SDS011;1936;47.074;15.336;2023-07-09T03:13:55;9.40;;;7.47;;
3841;SDS011;1936;47.074;15.336;2023-07-09T03:15:58;8.83;;;7.93;;
3841;SDS011;1936;47.074;15.336;2023-07-09T03:18:04;10.70;;;8.63;;
3841;SDS011;1936;47.074;15.336;2023-07-09T03:20:08;8.20;;;7.50;;
3841;SDS011;1936;47.074;15.336;2023-07-09T03:22:14;9.73;;;7.80;;
3841;SDS011;1936;47.074;15.336;2023-07-09T03:24:18;8.37;;;7.53;;
3841;SDS011;1936;47.074;15.336;2023-07-09T03:26:22;7.80;;;7.10;;
3841;SDS011;1936;47.074;15.336;2023-07-09T03:28:26;13.53;;;7.97;;
3841;SDS011;1936;47.074;15.336;2023-07-09T03:30:31;10.40;;;8.53;;
3841;SDS011;1936;47.074;15.336;2023-07-09T03:32:36;11.20;;;9.10;;
3841;SDS011;1936;47.074;15.336;2023-07-09T03:34:41;11.50;;;8.83;;
3841;SDS011;1936;47.074;15.336;2023-07-09T03:36:44;9.77;;;8.60;;
3841;SDS011;1936;47.074;15.336;2023-07-09T03:38:48;13.57;;;8.30;;
3841;SDS011;1936;47.074;15.336;2023-07-09T03:40:52;9.10;;;7.77;;
3841;SDS011;1936;47.074;15.336;2023-07-09T03:42:57;10.70;;;8.50;;
3841;SDS011;1936;47.074;15.336;2023-07-09T03:45:01;8.30;;;7.50;;
3841;SDS011;1936;47.074;15.336;2023-07-09T03:47:04;9.37;;;8.10;;
3841;SDS011;1936;47.074;15.336;2023-07-09T03:49:08;9.17;;;7.90;;
3841;SDS011;1936;47.074;15.336;2023-07-09T03:51:14;9.47;;;8.50;;
3841;SDS011;1936;47.074;15.336;2023-07-09T03:53:17;9.07;;;7.93;;
3841;SDS011;1936;47.074;15.336;2023-07-09T03:55:21;9.63;;;7.87;;
3841;SDS011;1936;47.074;15.336;2023-07-09T03:57:28;9.00;;;7.73;;
3841;SDS011;1936;47.074;15.336;2023-07-09T03:59:31;10.67;;;8.30;;
3841;SDS011;1936;47.074;15.336;2023-07-09T04:01:35;10.40;;;8.37;;
3841;SDS011;1936;47.074;15.336;2023-07-09T04:03:38;9.03;;;7.17;;
3841;SDS011;1936;47.074;15.336;2023-07-09T04:05:42;8.53;;;7.63;;
3841;SDS011;1936;47.074;15.336;2023-07-09T04:07:48;9.80;;;8.23;;
3841;SDS011;1936;47.074;15.336;2023-07-09T04:09:51;8.73;;;7.67;;
3841;SDS011;1936;47.074;15.336;2023-07-09T04:11:55;9.37;;;6.90;;
3841;SDS011;1936;47.074;15.336;2023-07-09T04:13:58;8.30;;;7.40;;
3841;SDS011;1936;47.074;15.336;2023-07-09T04:16:03;9.33;;;6.83;;
3841;SDS011;1936;47.074;15.336;2023-07-09T04:18:07;10.23;;;9.20;;
3841;SDS011;1936;47.074;15.336;2023-07-09T04:20:11;8.67;;;7.60;;
3841;SDS011;1936;47.074;15.336;2023-07-09T04:22:15;10.40;;;7.70;;
3841;SDS011;1936;47.074;15.336;2023-07-09T04:24:21;7.97;;;7.17;;
3841;SDS011;1936;47.074;15.336;2023-07-09T04:26:25;9.53;;;7.87;;
3841;SDS011;1936;47.074;15.336;2023-07-09T04:28:29;11.07;;;7.30;;
3841;SDS011;1936;47.074;15.336;2023-07-09T04:30:33;9.10;;;8.20;;
3841;SDS011;1936;47.074;15.336;2023-07-09T04:32:36;8.90;;;7.17;;
3841;SDS011;1936;47.074;15.336;2023-07-09T04:34:40;9.60;;;8.43;;
3841;SDS011;1936;47.074;15.336;2023-07-09T04:36:44;9.97;;;7.60;;
3841;SDS011;1936;47.074;15.336;2023-07-09T04:38:48;9.93;;;6.80;;
3841;SDS011;1936;47.074;15.336;2023-07-09T04:40:53;16.80;;;6.87;;
3841;SDS011;1936;47.074;15.336;2023-07-09T04:42:56;9.10;;;7.90;;
3841;SDS011;1936;47.074;15.336;2023-07-09T04:45:00;7.40;;;6.70;;
3841;SDS011;1936;47.074;15.336;2023-07-09T04:47:04;7.43;;;6.73;;
3841;SDS011;1936;47.074;15.336;2023-07-09T04:49:08;9.43;;;7.43;;
3841;SDS011;1936;47.074;15.336;2023-07-09T04:51:13;9.40;;;7.60;;
3841;SDS011;1936;47.074;15.336;2023-07-09T04:53:17;8.23;;;7.40;;
3841;SDS011;1936;47.074;15.336;2023-07-09T04:55:21;8.77;;;7.77;;
3841;SDS011;1936;47.074;15.336;2023-07-09T04:57:26;7.73;;;6.53;;
3841;SDS011;1936;47.074;15.336;2023-07-09T04:59:30;12.13;;;6.70;;
3841;SDS011;1936;47.074;15.336;2023-07-09T05:01:34;11.60;;;8.47;;
3841;SDS011;1936;47.074;15.336;2023-07-09T05:03:38;11.63;;;7.70;;
3841;SDS011;1936;47.074;15.336;2023-07-09T05:05:42;10.00;;;7.70;;
3841;SDS011;1936;47.074;15.336;2023-07-09T05:07:46;9.33;;;8.07;;
3841;SDS011;1936;47.074;15.336;2023-07-09T05:09:49;8.30;;;7.50;;
3841;SDS011;1936;47.074;15.336;2023-07-09T05:11:53;11.77;;;8.60;;
3841;SDS011;1936;47.074;15.336;2023-07-09T05:13:58;7.30;;;6.60;;
3841;SDS011;1936;47.074;15.336;2023-07-09T05:16:01;9.67;;;7.47;;
3841;SDS011;1936;47.074;15.336;2023-07-09T05:18:05;8.97;;;7.20;;
3841;SDS011;1936;47.074;15.336;2023-07-09T05:20:10;9.10;;;6.63;;
3841;SDS011;1936;47.074;15.336;2023-07-09T05:22:13;9.80;;;6.67;;
3841;SDS011;1936;47.074;15.336;2023-07-09T05:24:16;7.90;;;7.20;;
3841;SDS011;1936;47.074;15.336;2023-07-09T05:26:20;9.80;;;7.70;;
3841;SDS011;1936;47.074;15.336;2023-07-09T05:28:24;7.70;;;7.10;;
3841;SDS011;1936;47.074;15.336;2023-07-09T05:30:29;11.73;;;7.03;;
3841;SDS011;1936;47.074;15.336;2023-07-09T05:32:33;10.17;;;7.83;;
3841;SDS011;1936;47.074;15.336;2023-07-09T05:34:36;8.93;;;7.20;;
3841;SDS011;1936;47.074;15.336;2023-07-09T05:36:39;8.83;;;7.93;;
3841;SDS011;1936;47.074;15.336;2023-07-09T05:38:43;14.20;;;7.63;;
3841;SDS011;1936;47.074;15.336;2023-07-09T05:40:47;7.27;;;6.37;;
3841;SDS011;1936;47.074;15.336;2023-07-09T05:42:51;8.80;;;7.43;;
3841;SDS011;1936;47.074;15.336;2023-07-09T05:44:54;8.07;;;6.33;;
3841;SDS011;1936;47.074;15.336;2023-07-09T05:46:59;9.27;;;8.37;;
3841;SDS011;1936;47.074;15.336;2023-07-09T05:49:03;8.33;;;7.00;;
3841;SDS011;1936;47.074;15.336;2023-07-09T05:51:07;9.30;;;7.20;;
3841;SDS011;1936;47.074;15.336;2023-07-09T05:53:11;11.90;;;7.40;;
3841;SDS011;1936;47.074;15.336;2023-07-09T05:55:14;8.97;;;7.70;;
3841;SDS011;1936;47.074;15.336;2023-07-09T05:57:18;8.30;;;7.37;;
3841;SDS011;1936;47.074;15.336;2023-07-09T05:59:22;8.53;;;7.37;;
3841;SDS011;1936;47.074;15.336;2023-07-09T06:01:25;12.33;;;7.53;;
3841;SDS011;1936;47.074;15.336;2023-07-09T06:03:30;10.60;;;8.00;;
3841;SDS011;1936;47.074;15.336;2023-07-09T06:05:35;7.83;;;7.03;;
3841;SDS011;1936;47.074;15.336;2023-07-09T06:07:38;8.47;;;7.60;;
3841;SDS011;1936;47.074;15.336;2023-07-09T06:09:42;10.10;;;6.73;;
3841;SDS011;1936;47.074;15.336;2023-07-09T06:11:47;11.60;;;8.27;;
3841;SDS011;1936;47.074;15.336;2023-07-09T06:13:50;13.30;;;7.40;;
3841;SDS011;1936;47.074;15.336;2023-07-09T06:15:54;9.37;;;7.90;;
3841;SDS011;1936;47.074;15.336;2023-07-09T06:17:58;8.80;;;7.27;;
3841;SDS011;1936;47.074;15.336;2023-07-09T06:20:03;7.57;;;6.87;;
3841;SDS011;1936;47.074;15.336;2023-07-09T06:22:08;11.50;;;7.57;;
3841;SDS011;1936;47.074;15.336;2023-07-09T06:24:12;12.20;;;7.63;;
3841;SDS011;1936;47.074;15.336;2023-07-09T06:26:16;8.33;;;6.90;;
3841;SDS011;1936;47.074;15.336;2023-07-09T06:28:21;6.90;;;6.23;;
3841;SDS011;1936;47.074;15.336;2023-07-09T06:30:24;8.43;;;7.03;;
3841;SDS011;1936;47.074;15.336;2023-07-09T06:32:28;7.37;;;6.67;;
3841;SDS011;1936;47.074;15.336;2023-07-09T06:34:32;6.27;;;5.40;;
3841;SDS011;1936;47.074;15.336;2023-07-09T06:36:37;8.57;;;6.50;;
3841;SDS011;1936;47.074;15.336;2023-07-09T06:38:39;8.50;;;6.90;;
3841;SDS011;1936;47.074;15.336;2023-07-09T06:40:43;7.93;;;7.13;;
3841;SDS011;1936;47.074;15.336;2023-07-09T06:42:47;7.93;;;6.80;;
3841;SDS011;1936;47.074;15.336;2023-07-09T06:44:49;7.20;;;6.57;;
3841;SDS011;1936;47.074;15.336;2023-07-09T06:46:53;8.53;;;7.50;;
3841;SDS011;1936;47.074;15.336;2023-07-09T06:48:56;6.43;;;5.83;;
3841;SDS011;1936;47.074;15.336;2023-07-09T06:51:00;8.07;;;6.67;;
3841;SDS011;1936;47.074;15.336;2023-07-09T06:53:05;8.27;;;6.43;;
3841;SDS011;1936;47.074;15.336;2023-07-09T06:55:09;7.03;;;6.27;;
3841;SDS011;1936;47.074;15.336;2023-07-09T06:57:12;7.67;;;6.70;;
3841;SDS011;1936;47.074;15.336;2023-07-09T06:59:16;10.33;;;6.67;;
3841;SDS011;1936;47.074;15.336;2023-07-09T07:01:20;8.33;;;6.40;;
3841;SDS011;1936;47.074;15.336;2023-07-09T07:03:23;6.30;;;5.80;;
3841;SDS011;1936;47.074;15.336;2023-07-09T07:05:27;7.90;;;7.07;;
3841;SDS011;1936;47.074;15.336;2023-07-09T07:07:31;6.87;;;6.27;;
3841;SDS011;1936;47.074;15.336;2023-07-09T07:09:36;6.97;;;6.30;;
3841;SDS011;1936;47.074;15.336;2023-07-09T07:11:40;6.33;;;5.70;;
3841;SDS011;1936;47.074;15.336;2023-07-09T07:13:43;7.67;;;7.00;;
3841;SDS011;1936;47.074;15.336;2023-07-09T07:15:48;5.90;;;5.40;;
3841;SDS011;1936;47.074;15.336;2023-07-09T07:17:52;7.17;;;6.47;;
3841;SDS011;1936;47.074;15.336;2023-07-09T07:19:55;6.40;;;5.80;;
3841;SDS011;1936;47.074;15.336;2023-07-09T07:21:59;6.00;;;5.27;;
3841;SDS011;1936;47.074;15.336;2023-07-09T07:24:03;6.60;;;5.90;;
3841;SDS011;1936;47.074;15.336;2023-07-09T07:26:08;6.57;;;5.93;;
3841;SDS011;1936;47.074;15.336;2023-07-09T07:28:12;6.37;;;5.03;;
3841;SDS011;1936;47.074;15.336;2023-07-09T07:30:16;7.77;;;5.13;;
3841;SDS011;1936;47.074;15.336;2023-07-09T07:32:20;6.07;;;5.57;;
3841;SDS011;1936;47.074;15.336;2023-07-09T07:34:23;6.13;;;5.60;;
3841;SDS011;1936;47.074;15.336;2023-07-09T07:36:27;8.63;;;5.60;;
3841;SDS011;1936;47.074;15.336;2023-07-09T07:38:33;7.40;;;6.03;;
3841;SDS011;1936;47.074;15.336;2023-07-09T07:40:37;6.27;;;5.70;;
3841;SDS011;1936;47.074;15.336;2023-07-09T07:42:42;6.00;;;5.50;;
3841;SDS011;1936;47.074;15.336;2023-07-09T07:44:45;10.10;;;5.23;;
3841;SDS011;1936;47.074;15.336;2023-07-09T07:46:49;8.50;;;5.30;;
3841;SDS011;1936;47.074;15.336;2023-07-09T07:48:53;7.67;;;5.10;;
3841;SDS011;1936;47.074;15.336;2023-07-09T07:50:59;10.97;;;5.07;;
3841;SDS011;1936;47.074;15.336;2023-07-09T07:53:04;9.73;;;5.80;;
3841;SDS011;1936;47.074;15.336;2023-07-09T07:55:09;11.37;;;5.33;;
3841;SDS011;1936;47.074;15.336;2023-07-09T07:57:18;16.03;;;5.67;;
3841;SDS011;1936;47.074;15.336;2023-07-09T07:59:23;5.90;;;5.40;;
3841;SDS011;1936;47.074;15.336;2023-07-09T08:01:27;5.13;;;4.73;;
3841;SDS011;1936;47.074;15.336;2023-07-09T08:03:31;7.67;;;4.40;;
3841;SDS011;1936;47.074;15.336;2023-07-09T08:05:34;18.67;;;5.67;;
3841;SDS011;1936;47.074;15.336;2023-07-09T08:07:41;18.53;;;5.30;;
3841;SDS011;1936;47.074;15.336;2023-07-09T08:09:45;6.10;;;5.40;;
3841;SDS011;1936;47.074;15.336;2023-07-09T08:11:50;6.93;;;5.27;;
3841;SDS011;1936;47.074;15.336;2023-07-09T08:13:54;5.93;;;5.50;;
3841;SDS011;1936;47.074;15.336;2023-07-09T08:15:59;5.50;;;5.00;;
3841;SDS011;1936;47.074;15.336;2023-07-09T08:18:04;5.33;;;4.47;;
3841;SDS011;1936;47.074;15.336;2023-07-09T08:20:08;5.30;;;4.87;;
3841;SDS011;1936;47.074;15.336;2023-07-09T08:22:13;5.83;;;5.30;;
3841;SDS011;1936;47.074;15.336;2023-07-09T08:24:18;5.57;;;5.03;;
3841;SDS011;1936;47.074;15.336;2023-07-09T08:26:22;5.53;;;5.13;;
3841;SDS011;1936;47.074;15.336;2023-07-09T08:28:26;5.50;;;5.00;;
3841;SDS011;1936;47.074;15.336;2023-07-09T08:30:28;6.00;;;5.50;;
3841;SDS011;1936;47.074;15.336;2023-07-09T08:32:34;4.70;;;4.30;;
3841;SDS011;1936;47.074;15.336;2023-07-09T08:34:37;5.50;;;5.10;;
3841;SDS011;1936;47.074;15.336;2023-07-09T08:37:02;5.20;;;4.80;;
3841;SDS011;1936;47.074;15.336;2023-07-09T08:39:06;5.20;;;4.80;;
3841;SDS011;1936;47.074;15.336;2023-07-09T08:41:15;4.50;;;4.20;;
3841;SDS011;1936;47.074;15.336;2023-07-09T08:43:32;5.87;;;5.37;;
3841;SDS011;1936;47.074;15.336;2023-07-09T08:45:40;5.93;;;5.33;;
3841;SDS011;1936;47.074;15.336;2023-07-09T08:47:57;5.47;;;4.97;;
3841;SDS011;1936;47.074;15.336;2023-07-09T08:50:08;6.30;;;5.80;;
3841;SDS011;1936;47.074;15.336;2023-07-09T08:52:24;5.03;;;4.53;;
3841;SDS011;1936;47.074;15.336;2023-07-09T08:54:33;5.47;;;4.97;;
3841;SDS011;1936;47.074;15.336;2023-07-09T08:56:38;6.27;;;5.67;;
3841;SDS011;1936;47.074;15.336;2023-07-09T08:58:43;5.10;;;4.70;;
3841;SDS011;1936;47.074;15.336;2023-07-09T09:00:49;5.33;;;4.80;;
3841;SDS011;1936;47.074;15.336;2023-07-09T09:02:58;5.03;;;4.63;;
3841;SDS011;1936;47.074;15.336;2023-07-09T09:05:07;5.40;;;4.73;;
3841;SDS011;1936;47.074;15.336;2023-07-09T09:07:15;5.53;;;5.03;;
3841;SDS011;1936;47.074;15.336;2023-07-09T09:09:24;4.40;;;3.83;;
3841;SDS011;1936;47.074;15.336;2023-07-09T09:11:39;4.57;;;3.93;;
3841;SDS011;1936;47.074;15.336;2023-07-09T09:13:47;5.10;;;4.60;;
3841;SDS011;1936;47.074;15.336;2023-07-09T09:15:53;4.87;;;4.27;;
3841;SDS011;1936;47.074;15.336;2023-07-09T09:20:41;4.37;;;3.90;;
3841;SDS011;1936;47.074;15.336;2023-07-09T09:22:46;6.57;;;4.30;;
3841;SDS011;1936;47.074;15.336;2023-07-09T09:24:54;4.60;;;4.20;;
3841;SDS011;1936;47.074;15.336;2023-07-09T09:27:01;5.50;;;4.97;;
3841;SDS011;1936;47.074;15.336;2023-07-09T09:29:09;6.33;;;4.10;;
3841;SDS011;1936;47.074;15.336;2023-07-09T09:31:14;4.30;;;3.90;;
3841;SDS011;1936;47.074;15.336;2023-07-09T09:33:20;6.23;;;4.90;;
3841;SDS011;1936;47.074;15.336;2023-07-09T09:35:27;4.07;;;3.67;;
3841;SDS011;1936;47.074;15.336;2023-07-09T09:37:36;3.93;;;3.63;;
3841;SDS011;1936;47.074;15.336;2023-07-09T09:39:39;4.20;;;3.80;;
3841;SDS011;1936;47.074;15.336;2023-07-09T09:41:43;5.13;;;3.57;;
3841;SDS011;1936;47.074;15.336;2023-07-09T09:43:48;4.90;;;4.40;;
3841;SDS011;1936;47.074;15.336;2023-07-09T09:45:54;3.70;;;3.40;;
3841;SDS011;1936;47.074;15.336;2023-07-09T09:47:58;4.80;;;3.20;;
3841;SDS011;1936;47.074;15.336;2023-07-09T09:50:03;3.60;;;3.30;;
3841;SDS011;1936;47.074;15.336;2023-07-09T09:52:10;3.97;;;3.60;;
3841;SDS011;1936;47.074;15.336;2023-07-09T09:54:20;4.20;;;3.80;;
3841;SDS011;1936;47.074;15.336;2023-07-09T09:56:26;3.53;;;3.23;;
3841;SDS011;1936;47.074;15.336;2023-07-09T09:58:32;4.40;;;3.33;;
3841;SDS011;1936;47.074;15.336;2023-07-09T10:00:35;3.50;;;3.20;;
3841;SDS011;1936;47.074;15.336;2023-07-09T10:02:39;4.00;;;3.70;;
3841;SDS011;1936;47.074;15.336;2023-07-09T10:04:44;3.70;;;3.30;;
3841;SDS011;1936;47.074;15.336;2023-07-09T10:06:49;3.80;;;3.50;;
3841;SDS011;1936;47.074;15.336;2023-07-09T10:08:56;3.30;;;3.00;;
3841;SDS011;1936;47.074;15.336;2023-07-09T10:11:08;3.53;;;3.23;;
3841;SDS011;1936;47.074;15.336;2023-07-09T10:13:19;5.20;;;3.57;;
3841;SDS011;1936;47.074;15.336;2023-07-09T10:15:31;4.07;;;3.03;;
3841;SDS011;1936;47.074;15.336;2023-07-09T10:17:42;5.17;;;4.00;;
3841;SDS011;1936;47.074;15.336;2023-07-09T10:19:57;3.33;;;3.13;;
3841;SDS011;1936;47.074;15.336;2023-07-09T10:22:05;3.93;;;3.57;;
3841;SDS011;1936;47.074;15.336;2023-07-09T10:24:17;4.07;;;3.77;;
3841;SDS011;1936;47.074;15.336;2023-07-09T10:26:32;3.70;;;3.40;;
3841;SDS011;1936;47.074;15.336;2023-07-09T10:28:53;3.90;;;3.60;;
3841;SDS011;1936;47.074;15.336;2023-07-09T10:31:07;3.77;;;3.00;;
3841;SDS011;1936;47.074;15.336;2023-07-09T10:33:19;4.07;;;3.73;;
3841;SDS011;1936;47.074;15.336;2023-07-09T10:35:37;5.30;;;4.60;;
3841;SDS011;1936;47.074;15.336;2023-07-09T10:37:55;4.17;;;3.87;;
3841;SDS011;1936;47.074;15.336;2023-07-09T10:40:08;4.67;;;4.23;;
3841;SDS011;1936;47.074;15.336;2023-07-09T10:42:18;4.30;;;3.90;;
3841;SDS011;1936;47.074;15.336;2023-07-09T10:44:28;4.57;;;4.17;;
3841;SDS011;1936;47.074;15.336;2023-07-09T10:46:39;4.77;;;4.10;;
3841;SDS011;1936;47.074;15.336;2023-07-09T10:48:45;5.60;;;5.00;;
3841;SDS011;1936;47.074;15.336;2023-07-09T10:50:51;5.80;;;5.30;;
3841;SDS011;1936;47.074;15.336;2023-07-09T10:52:56;9.00;;;5.30;;
3841;SDS011;1936;47.074;15.336;2023-07-09T10:55:05;5.20;;;4.80;;
3841;SDS011;1936;47.074;15.336;2023-07-09T10:57:19;8.53;;;5.17;;
3841;SDS011;1936;47.074;15.336;2023-07-09T10:59:31;4.80;;;4.40;;
3841;SDS011;1936;47.074;15.336;2023-07-09T11:01:38;5.83;;;5.23;;
3841;SDS011;1936;47.074;15.336;2023-07-09T11:03:47;4.93;;;4.53;;
3841;SDS011;1936;47.074;15.336;2023-07-09T11:05:54;5.57;;;4.97;;
3841;SDS011;1936;47.074;15.336;2023-07-09T11:07:59;6.53;;;4.53;;
3841;SDS011;1936;47.074;15.336;2023-07-09T11:10:07;6.23;;;4.67;;
3841;SDS011;1936;47.074;15.336;2023-07-09T11:12:19;5.30;;;4.80;;
3841;SDS011;1936;47.074;15.336;2023-07-09T11:14:27;6.77;;;5.43;;
3841;SDS011;1936;47.074;15.336;2023-07-09T11:16:36;5.27;;;4.80;;
3841;SDS011;1936;47.074;15.336;2023-07-09T11:18:51;6.33;;;5.03;;
3841;SDS011;1936;47.074;15.336;2023-07-09T11:20:58;7.93;;;4.80;;
3841;SDS011;1936;47.074;15.336;2023-07-09T11:23:05;5.10;;;4.60;;
3841;SDS011;1936;47.074;15.336;2023-07-09T11:25:26;6.50;;;5.90;;
3841;SDS011;1936;47.074;15.336;2023-07-09T11:27:32;5.00;;;4.60;;
3841;SDS011;1936;47.074;15.336;2023-07-09T11:29:44;5.97;;;5.40;;
3841;SDS011;1936;47.074;15.336;2023-07-09T11:31:49;5.73;;;5.27;;
3841;SDS011;1936;47.074;15.336;2023-07-09T11:33:58;5.77;;;4.50;;
3841;SDS011;1936;47.074;15.336;2023-07-09T11:36:08;5.77;;;5.27;;
3841;SDS011;1936;47.074;15.336;2023-07-09T11:38:15;5.80;;;5.30;;
3841;SDS011;1936;47.074;15.336;2023-07-09T11:40:22;6.00;;;5.50;;
3841;SDS011;1936;47.074;15.336;2023-07-09T11:42:27;5.50;;;5.00;;
3841;SDS011;1936;47.074;15.336;2023-07-09T11:44:33;7.20;;;5.70;;
3841;SDS011;1936;47.074;15.336;2023-07-09T11:46:40;6.47;;;5.97;;
3841;SDS011;1936;47.074;15.336;2023-07-09T11:48:54;5.90;;;5.40;;
3841;SDS011;1936;47.074;15.336;2023-07-09T11:51:00;7.93;;;5.90;;
3841;SDS011;1936;47.074;15.336;2023-07-09T11:53:18;6.20;;;5.63;;
3841;SDS011;1936;47.074;15.336;2023-07-09T11:55:33;5.73;;;5.23;;
3841;SDS011;1936;47.074;15.336;2023-07-09T11:57:46;6.07;;;5.50;;
3841;SDS011;1936;47.074;15.336;2023-07-09T11:59:51;5.50;;;5.00;;
3841;SDS011;1936;47.074;15.336;2023-07-09T12:01:55;5.90;;;5.40;;
3841;SDS011;1936;47.074;15.336;2023-07-09T12:04:02;6.17;;;5.67;;
3841;SDS011;1936;47.074;15.336;2023-07-09T12:06:13;8.47;;;5.27;;
3841;SDS011;1936;47.074;15.336;2023-07-09T12:08:32;5.60;;;5.10;;
3841;SDS011;1936;47.074;15.336;2023-07-09T12:10:42;6.23;;;5.50;;
3841;SDS011;1936;47.074;15.336;2023-07-09T12:12:47;5.60;;;4.83;;
3841;SDS011;1936;47.074;15.336;2023-07-09T12:14:53;6.63;;;6.03;;
3841;SDS011;1936;47.074;15.336;2023-07-09T12:16:56;6.27;;;5.67;;
3841;SDS011;1936;47.074;15.336;2023-07-09T12:19:00;6.00;;;5.50;;
3841;SDS011;1936;47.074;15.336;2023-07-09T12:21:05;7.90;;;6.20;;
3841;SDS011;1936;47.074;15.336;2023-07-09T12:23:15;7.27;;;5.00;;
3841;SDS011;1936;47.074;15.336;2023-07-09T12:25:23;6.57;;;6.07;;
3841;SDS011;1936;47.074;15.336;2023-07-09T12:27:30;6.13;;;5.50;;
3841;SDS011;1936;47.074;15.336;2023-07-09T12:29:39;6.50;;;5.90;;
3841;SDS011;1936;47.074;15.336;2023-07-09T12:31:43;6.90;;;5.80;;
3841;SDS011;1936;47.074;15.336;2023-07-09T12:33:47;6.70;;;5.63;;
3841;SDS011;1936;47.074;15.336;2023-07-09T12:35:53;5.67;;;5.17;;
3841;SDS011;1936;47.074;15.336;2023-07-09T12:37:59;6.60;;;6.10;;
3841;SDS011;1936;47.074;15.336;2023-07-09T12:40:03;6.00;;;5.30;;
3841;SDS011;1936;47.074;15.336;2023-07-09T12:42:14;6.60;;;5.30;;
3841;SDS011;1936;47.074;15.336;2023-07-09T12:44:20;5.40;;;4.90;;
3841;SDS011;1936;47.074;15.336;2023-07-09T12:46:25;6.77;;;5.47;;
3841;SDS011;1936;47.074;15.336;2023-07-09T12:48:31;6.10;;;5.50;;
3841;SDS011;1936;47.074;15.336;2023-07-09T12:50:35;12.27;;;5.57;;